createdAt,value
2017-09-16T00:01:52.220Z,27.62
2017-09-16T00:04:18.884Z,28.25
2017-09-16T00:06:45.588Z,25.70
2017-09-16T00:09:12.252Z,23.05
2017-09-16T00:11:38.922Z,26.08
2017-09-16T00:14:05.592Z,28.55
2017-09-16T00:16:32.256Z,19.17
2017-09-16T00:18:58.919Z,23.58
2017-09-16T00:21:25.602Z,23.02
2017-09-16T00:23:52.263Z,26.12
2017-09-16T00:26:18.948Z,24.37
2017-09-16T00:28:45.612Z,24.48
2017-09-16T00:31:12.299Z,23.33
2017-09-16T00:33:38.967Z,24.65
2017-09-16T00:36:05.656Z,24.87
2017-09-16T00:38:32.324Z,28.87
2017-09-16T00:40:59.047Z,29.25
2017-09-16T00:43:25.712Z,24.98
2017-09-16T00:45:52.379Z,28.42
2017-09-16T00:48:19.063Z,27.48
2017-09-16T00:50:45.723Z,29.58
2017-09-16T00:53:12.412Z,27.75
2017-09-16T00:55:39.072Z,27.27
2017-09-16T00:58:05.755Z,29.00
2017-09-16T01:00:32.415Z,26.50
2017-09-16T01:02:59.112Z,30.10
2017-09-16T01:05:25.776Z,29.58
2017-09-16T01:07:52.474Z,33.78
2017-09-16T01:10:19.139Z,28.58
2017-09-16T01:12:45.827Z,26.50
2017-09-16T01:15:12.533Z,32.28
2017-09-16T01:17:39.233Z,27.35
2017-09-16T01:20:05.896Z,28.30
2017-09-16T01:22:32.588Z,27.13
2017-09-16T01:24:59.253Z,35.15
2017-09-16T01:27:25.917Z,29.45
2017-09-16T01:29:52.580Z,29.40
2017-09-16T01:32:19.244Z,27.92
2017-09-16T01:34:45.932Z,29.48
2017-09-16T01:37:12.591Z,26.98
2017-09-16T01:39:39.288Z,29.30
2017-09-16T01:42:05.951Z,31.08
2017-09-16T01:44:32.643Z,34.75
2017-09-16T01:46:59.316Z,27.45
2017-09-16T01:49:26.019Z,31.27
2017-09-16T01:51:52.680Z,29.98
2017-09-16T01:54:19.352Z,33.13
2017-09-16T01:56:46.019Z,34.42
2017-09-16T01:59:12.680Z,33.55
2017-09-16T02:01:39.343Z,29.08
2017-09-16T02:04:06.008Z,35.15
2017-09-16T02:06:32.694Z,30.73
2017-09-16T02:08:59.351Z,32.58
2017-09-16T02:11:26.036Z,34.72
2017-09-16T02:13:52.708Z,35.70
2017-09-16T02:16:19.419Z,33.40
2017-09-16T02:18:46.088Z,32.03
2017-09-16T02:21:12.747Z,32.17
2017-09-16T02:23:39.416Z,32.15
2017-09-16T02:26:06.107Z,35.50
2017-09-16T02:28:32.772Z,34.85
2017-09-16T02:30:59.442Z,32.72
2017-09-16T02:33:26.103Z,35.08
2017-09-16T02:35:52.771Z,28.55
2017-09-16T02:38:19.464Z,33.85
2017-09-16T02:40:46.123Z,34.67
2017-09-16T02:43:12.811Z,31.98
2017-09-16T02:45:39.483Z,34.38
2017-09-16T02:48:06.143Z,35.00
2017-09-16T02:50:32.816Z,40.35
2017-09-16T02:52:59.489Z,31.52
2017-09-16T02:55:26.155Z,33.85
2017-09-16T02:57:52.827Z,30.20
2017-09-16T03:00:19.495Z,32.42
2017-09-16T03:02:46.178Z,32.05
2017-09-16T03:05:12.847Z,33.05
2017-09-16T03:07:39.520Z,27.58
2017-09-16T03:10:06.208Z,40.60
2017-09-16T03:12:32.880Z,35.00
2017-09-16T03:14:59.718Z,32.40
2017-09-16T03:17:26.399Z,27.20
2017-09-16T03:19:53.084Z,34.83
2017-09-16T03:22:19.752Z,33.53
2017-09-16T03:24:46.412Z,28.00
2017-09-16T03:27:13.071Z,34.88
2017-09-16T03:29:39.740Z,40.70
2017-09-16T03:32:06.407Z,30.92
2017-09-16T03:34:33.071Z,34.92
2017-09-16T03:36:59.733Z,28.77
2017-09-16T03:39:26.395Z,30.27
2017-09-16T03:41:53.079Z,30.48
2017-09-16T03:44:19.747Z,29.45
2017-09-16T03:46:46.444Z,32.28
2017-09-16T03:49:13.107Z,29.50
2017-09-16T03:51:39.772Z,30.80
2017-09-16T03:54:06.435Z,31.45
2017-09-16T03:56:33.109Z,30.90
2017-09-16T03:58:59.771Z,29.92
2017-09-16T04:01:32.264Z,31.98
2017-09-16T04:03:58.951Z,35.05
2017-09-16T04:06:25.620Z,34.50
2017-09-16T04:08:52.304Z,40.58
2017-09-16T04:11:18.972Z,30.70
2017-09-16T04:13:45.699Z,34.42
2017-09-16T04:16:12.360Z,34.13
2017-09-16T04:18:39.075Z,33.60
2017-09-16T04:21:05.735Z,33.05
2017-09-16T04:23:32.396Z,33.92
2017-09-16T04:25:59.060Z,33.70
2017-09-16T04:28:25.720Z,36.22
2017-09-16T04:30:52.388Z,35.90
2017-09-16T04:33:19.052Z,33.63
2017-09-16T04:35:45.731Z,31.45
2017-09-16T04:38:12.400Z,40.05
2017-09-16T04:40:39.082Z,34.90
2017-09-16T04:43:05.747Z,37.03
2017-09-16T04:45:32.430Z,38.45
2017-09-16T04:47:59.091Z,41.40
2017-09-16T04:50:25.755Z,41.25
2017-09-16T04:52:52.416Z,42.38
2017-09-16T04:55:19.079Z,36.65
2017-09-16T04:57:45.744Z,34.80
2017-09-16T05:00:12.412Z,35.08
2017-09-16T05:02:39.071Z,31.60
2017-09-16T05:05:05.740Z,35.42
2017-09-16T05:07:32.404Z,31.52
2017-09-16T05:09:59.063Z,33.25
2017-09-16T05:12:25.729Z,32.80
2017-09-16T05:14:52.387Z,30.37
2017-09-16T05:17:19.072Z,33.60
2017-09-16T05:19:45.741Z,31.52
2017-09-16T05:22:12.439Z,35.55
2017-09-16T05:24:39.131Z,30.67
2017-09-16T05:27:05.796Z,31.45
2017-09-16T05:29:32.467Z,27.70
2017-09-16T05:31:59.135Z,26.35
2017-09-16T05:34:25.799Z,29.42
2017-09-16T05:36:52.459Z,25.70
2017-09-16T05:39:19.116Z,26.83
2017-09-16T05:41:45.780Z,29.42
2017-09-16T05:44:12.443Z,22.05
2017-09-16T05:46:39.110Z,26.25
2017-09-16T05:49:05.775Z,24.98
2017-09-16T05:51:32.448Z,22.17
2017-09-16T05:53:59.151Z,20.58
2017-09-16T05:56:26.060Z,18.12
2017-09-16T05:58:52.740Z,21.17
2017-09-16T06:01:19.399Z,20.17
2017-09-16T06:03:46.055Z,21.08
2017-09-16T06:06:12.732Z,19.05
2017-09-16T06:08:39.392Z,18.55
2017-09-16T06:11:06.062Z,19.10
2017-09-16T06:13:32.732Z,19.05
2017-09-16T06:15:59.399Z,17.12
2017-09-16T06:18:26.064Z,17.25
2017-09-16T06:20:52.728Z,20.05
2017-09-16T06:23:19.387Z,16.92
2017-09-16T06:25:46.088Z,19.58
2017-09-16T06:28:12.756Z,17.00
2017-09-16T06:30:39.421Z,23.08
2017-09-16T06:33:06.115Z,16.42
2017-09-16T06:35:32.808Z,17.40
2017-09-16T06:37:59.491Z,22.25
2017-09-16T06:40:26.178Z,17.73
2017-09-16T06:42:52.863Z,20.23
2017-09-16T06:45:19.523Z,16.23
2017-09-16T06:47:46.183Z,18.08
2017-09-16T06:50:12.853Z,17.30
2017-09-16T06:52:39.520Z,17.00
2017-09-16T06:55:06.248Z,18.50
2017-09-16T06:57:32.907Z,16.95
2017-09-16T06:59:59.592Z,15.07
2017-09-16T07:02:26.263Z,15.15
2017-09-16T07:04:52.964Z,14.30
2017-09-16T07:07:19.623Z,13.97
2017-09-16T07:09:46.287Z,13.90
2017-09-16T07:12:12.956Z,13.47
2017-09-16T07:14:39.665Z,12.63
2017-09-16T07:17:06.323Z,13.00
2017-09-16T07:19:32.991Z,12.50
2017-09-16T07:21:59.855Z,12.07
2017-09-16T07:24:26.514Z,11.83
2017-09-16T07:26:53.201Z,11.87
2017-09-16T07:29:19.892Z,12.90
2017-09-16T07:31:46.574Z,12.60
2017-09-16T07:34:13.238Z,11.87
2017-09-16T07:36:39.940Z,12.37
2017-09-16T07:39:06.605Z,12.10
2017-09-16T07:41:33.308Z,11.53
2017-09-16T07:43:59.972Z,12.97
2017-09-16T07:46:26.637Z,13.53
2017-09-16T07:48:53.325Z,12.63
2017-09-16T07:51:19.987Z,11.73
2017-09-16T07:53:46.655Z,11.67
2017-09-16T07:56:13.331Z,12.83
2017-09-16T07:58:40.019Z,12.50
2017-09-16T08:01:06.691Z,12.47
2017-09-16T08:03:33.396Z,11.10
2017-09-16T08:06:00.060Z,11.23
2017-09-16T08:08:26.747Z,12.50
2017-09-16T08:10:53.412Z,10.73
2017-09-16T08:13:20.095Z,11.60
2017-09-16T08:15:46.796Z,11.03
2017-09-16T08:18:13.480Z,10.90
2017-09-16T08:20:40.145Z,11.17
2017-09-16T08:23:06.849Z,9.53
2017-09-16T08:25:33.503Z,9.27
2017-09-16T08:28:00.155Z,8.83
2017-09-16T08:30:26.812Z,9.17
2017-09-16T08:32:53.464Z,8.90
2017-09-16T08:35:20.118Z,8.23
2017-09-16T08:37:46.772Z,9.47
2017-09-16T08:40:13.428Z,9.20
2017-09-16T08:42:40.088Z,9.53
2017-09-16T08:45:06.775Z,8.77
2017-09-16T08:47:33.435Z,8.43
2017-09-16T08:50:00.098Z,8.90
2017-09-16T08:52:26.747Z,8.63
2017-09-16T08:54:53.425Z,8.00
2017-09-16T08:57:20.080Z,8.50
2017-09-16T08:59:46.731Z,7.83
2017-09-16T09:02:13.383Z,8.17
2017-09-16T09:04:40.035Z,7.63
2017-09-16T09:07:06.691Z,8.67
2017-09-16T09:09:33.349Z,8.37
2017-09-16T09:12:00.003Z,9.53
2017-09-16T09:14:26.684Z,9.20
2017-09-16T09:16:53.372Z,7.90
2017-09-16T09:19:20.044Z,14.30
2017-09-16T09:21:46.758Z,9.07
2017-09-16T09:24:13.416Z,10.53
2017-09-16T09:26:40.076Z,9.33
2017-09-16T09:29:06.732Z,7.63
2017-09-16T09:31:33.388Z,9.07
2017-09-16T09:34:00.044Z,8.80
2017-09-16T09:36:26.700Z,9.27
2017-09-16T09:38:53.351Z,8.80
2017-09-16T09:41:20.010Z,8.67
2017-09-16T09:43:46.663Z,8.97
2017-09-16T09:46:13.316Z,8.93
2017-09-16T09:48:40.016Z,8.07
2017-09-16T09:51:06.685Z,10.07
2017-09-16T09:53:33.339Z,8.87
2017-09-16T09:55:59.992Z,8.60
2017-09-16T09:58:26.644Z,7.73
2017-09-16T10:00:53.300Z,7.80
2017-09-16T10:03:19.960Z,8.57
2017-09-16T10:05:46.620Z,10.00
2017-09-16T10:08:13.279Z,9.93
2017-09-16T10:10:39.936Z,8.10
2017-09-16T10:13:06.591Z,9.63
2017-09-16T10:15:33.239Z,8.00
2017-09-16T10:17:59.904Z,8.33
2017-09-16T10:20:29.518Z,8.07
2017-09-16T10:22:56.403Z,9.03
2017-09-16T10:25:23.055Z,8.80
2017-09-16T10:27:49.733Z,7.93
2017-09-16T10:30:16.386Z,8.60
2017-09-16T10:32:43.072Z,8.50
2017-09-16T10:35:09.728Z,7.90
2017-09-16T10:37:36.407Z,8.10
2017-09-16T10:40:03.072Z,7.73
2017-09-16T10:42:29.765Z,10.30
2017-09-16T10:44:56.419Z,9.80
2017-09-16T10:47:23.095Z,9.10
2017-09-16T10:49:49.752Z,8.07
2017-09-16T10:52:16.429Z,8.67
2017-09-16T10:54:43.083Z,7.90
2017-09-16T10:57:09.739Z,7.60
2017-09-16T10:59:36.396Z,8.70
2017-09-16T11:02:03.056Z,7.73
2017-09-16T11:04:29.711Z,7.30
2017-09-16T11:06:56.371Z,7.43
2017-09-16T11:09:23.048Z,7.37
2017-09-16T11:11:49.708Z,7.17
2017-09-16T11:14:16.387Z,7.13
2017-09-16T11:16:43.054Z,10.17
2017-09-16T11:19:09.764Z,7.50
2017-09-16T11:21:36.431Z,7.30
2017-09-16T11:24:03.088Z,6.83
2017-09-16T11:26:29.748Z,8.47
2017-09-16T11:28:56.399Z,7.97
2017-09-16T11:31:23.055Z,8.80
2017-09-16T11:33:49.707Z,8.77
2017-09-16T11:36:16.367Z,7.23
2017-09-16T11:38:43.024Z,8.73
2017-09-16T11:41:09.706Z,9.00
2017-09-16T11:43:36.363Z,8.47
2017-09-16T11:46:03.039Z,8.53
2017-09-16T11:48:29.693Z,7.67
2017-09-16T11:50:56.384Z,7.27
2017-09-16T11:53:23.040Z,8.10
2017-09-16T11:55:49.696Z,9.00
2017-09-16T11:58:16.347Z,7.93
2017-09-16T12:00:42.995Z,8.77
2017-09-16T12:03:09.652Z,8.90
2017-09-16T12:05:36.305Z,8.90
2017-09-16T12:08:02.996Z,7.80
2017-09-16T12:10:29.660Z,7.20
2017-09-16T12:12:56.340Z,6.60
2017-09-16T12:15:22.994Z,7.50
2017-09-16T12:17:49.671Z,7.03
2017-09-16T12:20:16.327Z,6.93
2017-09-16T12:22:43.007Z,7.70
2017-09-16T12:25:09.668Z,8.20
2017-09-16T12:27:36.397Z,7.70
2017-09-16T12:30:03.047Z,6.77
2017-09-16T12:32:29.723Z,7.20
2017-09-16T12:34:56.473Z,7.87
2017-09-16T12:37:23.131Z,8.48
2017-09-16T12:39:49.795Z,7.22
2017-09-16T12:42:16.456Z,7.18
2017-09-16T12:44:43.128Z,6.97
2017-09-16T12:47:09.792Z,7.70
2017-09-16T12:49:36.500Z,7.55
2017-09-16T12:52:03.163Z,7.40
2017-09-16T12:54:29.823Z,6.00
2017-09-16T12:56:56.492Z,7.78
2017-09-16T12:59:23.163Z,7.35
2017-09-16T13:01:49.825Z,7.32
2017-09-16T13:04:16.491Z,8.15
2017-09-16T13:06:43.159Z,7.57
2017-09-16T13:09:09.828Z,7.78
2017-09-16T13:11:36.541Z,9.00
2017-09-16T13:14:03.199Z,7.28
2017-09-16T13:16:29.894Z,6.85
2017-09-16T13:18:56.578Z,6.65
2017-09-16T13:21:23.263Z,6.68
2017-09-16T13:23:49.933Z,7.15
2017-09-16T13:26:16.604Z,6.37
2017-09-16T13:28:43.268Z,7.03
2017-09-16T13:31:09.927Z,7.18
2017-09-16T13:33:36.603Z,7.35
2017-09-16T13:36:03.268Z,5.87
2017-09-16T13:38:29.932Z,6.03
2017-09-16T13:40:56.600Z,6.95
2017-09-16T13:43:23.268Z,5.80
2017-09-16T13:45:49.928Z,8.50
2017-09-16T13:48:16.749Z,5.90
2017-09-16T13:50:43.400Z,6.10
2017-09-16T13:53:10.104Z,9.13
2017-09-16T13:55:36.735Z,6.30
2017-09-16T13:58:03.392Z,5.00
2017-09-16T14:00:30.056Z,5.40
2017-09-16T14:02:56.727Z,5.95
2017-09-16T14:05:23.391Z,5.82
2017-09-16T14:07:50.056Z,5.50
2017-09-16T14:10:16.736Z,7.45
2017-09-16T14:12:43.400Z,5.30
2017-09-16T14:15:10.068Z,5.70
2017-09-16T14:17:36.811Z,5.32
2017-09-16T14:20:03.472Z,4.97
2017-09-16T14:22:30.139Z,7.22
2017-09-16T14:24:56.840Z,4.50
2017-09-16T14:27:23.500Z,4.80
2017-09-16T14:29:50.163Z,6.10
2017-09-16T14:32:16.828Z,5.47
2017-09-16T14:34:43.480Z,6.28
2017-09-16T14:37:10.140Z,5.93
2017-09-16T14:39:36.797Z,5.97
2017-09-16T14:42:03.453Z,7.57
2017-09-16T14:44:30.116Z,5.93
2017-09-16T14:46:56.780Z,6.35
2017-09-16T14:49:23.435Z,6.10
2017-09-16T14:51:50.131Z,4.90
2017-09-16T14:54:16.791Z,5.95
2017-09-16T14:56:43.443Z,9.65
2017-09-16T14:59:10.099Z,5.35
2017-09-16T15:01:36.760Z,5.43
2017-09-16T15:04:03.407Z,5.53
2017-09-16T15:06:30.064Z,4.82
2017-09-16T15:08:56.725Z,4.72
2017-09-16T15:11:23.379Z,8.93
2017-09-16T15:13:50.059Z,5.62
2017-09-16T15:16:16.802Z,5.25
2017-09-16T15:18:43.495Z,7.45
2017-09-16T15:21:10.148Z,4.93
2017-09-16T15:23:36.844Z,4.25
2017-09-16T15:26:03.495Z,4.65
2017-09-16T15:28:30.143Z,4.93
2017-09-16T15:30:56.825Z,5.65
2017-09-16T15:33:23.479Z,5.47
2017-09-16T15:35:50.136Z,3.90
2017-09-16T15:38:16.782Z,5.40
2017-09-16T15:40:43.446Z,6.20
2017-09-16T15:43:10.100Z,6.35
2017-09-16T15:45:36.780Z,4.47
2017-09-16T15:48:03.439Z,6.53
2017-09-16T15:50:30.116Z,4.53
2017-09-16T15:52:56.773Z,4.40
2017-09-16T15:55:23.456Z,5.15
2017-09-16T15:57:50.118Z,4.25
2017-09-16T16:00:16.819Z,4.22
2017-09-16T16:02:43.472Z,6.85
2017-09-16T16:05:10.119Z,4.40
2017-09-16T16:07:36.779Z,4.18
2017-09-16T16:10:03.444Z,3.50
2017-09-16T16:12:30.123Z,4.22
2017-09-16T16:14:56.785Z,3.67
2017-09-16T16:17:23.468Z,3.87
2017-09-16T16:19:50.125Z,3.90
2017-09-16T16:22:16.864Z,3.50
2017-09-16T16:24:43.523Z,5.35
2017-09-16T16:27:10.227Z,4.85
2017-09-16T16:29:36.888Z,4.60
2017-09-16T16:32:03.584Z,4.47
2017-09-16T16:34:30.244Z,4.68
2017-09-16T16:36:56.900Z,6.70
2017-09-16T16:39:23.552Z,5.90
2017-09-16T16:41:50.207Z,5.45
2017-09-16T16:44:16.864Z,4.85
2017-09-16T16:46:43.524Z,4.80
2017-09-16T16:49:10.204Z,4.82
2017-09-16T16:51:36.863Z,4.97
2017-09-16T16:54:03.546Z,6.32
2017-09-16T16:56:30.199Z,4.87
2017-09-16T16:58:56.895Z,5.20
2017-09-16T17:01:23.548Z,4.60
2017-09-16T17:03:50.243Z,4.60
2017-09-16T17:06:16.896Z,4.87
2017-09-16T17:08:43.565Z,7.50
2017-09-16T17:11:10.223Z,5.82
2017-09-16T17:13:36.887Z,6.15
2017-09-16T17:16:03.539Z,6.93
2017-09-16T17:18:30.203Z,16.77
2017-09-16T17:20:56.856Z,10.60
2017-09-16T17:23:23.516Z,13.05
2017-09-16T17:25:50.183Z,54.13
2017-09-16T17:28:16.852Z,15.77
2017-09-16T17:30:43.544Z,42.53
2017-09-16T17:33:10.214Z,19.48
2017-09-16T17:35:36.899Z,19.12
2017-09-16T17:38:03.563Z,14.55
2017-09-16T17:40:30.256Z,16.98
2017-09-16T17:42:56.916Z,15.18
2017-09-16T17:45:23.584Z,15.20
2017-09-16T17:47:50.244Z,11.00
2017-09-16T17:50:16.904Z,18.42
2017-09-16T17:52:43.571Z,14.95
2017-09-16T17:55:10.235Z,13.85
2017-09-16T17:57:36.921Z,15.85
2017-09-16T18:00:03.580Z,14.65
2017-09-16T18:02:30.264Z,12.88
2017-09-16T18:04:56.931Z,13.00
2017-09-16T18:07:23.596Z,25.27
2017-09-16T18:09:50.252Z,63.80
2017-09-16T18:12:16.919Z,80.30
2017-09-16T18:14:43.587Z,112.68
2017-09-16T18:17:10.248Z,78.28
2017-09-16T18:19:36.946Z,49.83
2017-09-16T18:22:03.639Z,43.42
2017-09-16T18:24:30.296Z,23.27
2017-09-16T18:26:56.959Z,21.00
2017-09-16T18:29:23.624Z,13.02
2017-09-16T18:31:50.288Z,13.18
2017-09-16T18:34:17.027Z,29.42
2017-09-16T18:36:44.306Z,21.73
2017-09-16T18:39:10.983Z,32.65
2017-09-16T18:41:37.644Z,28.30
2017-09-16T18:44:04.332Z,22.48
2017-09-16T18:46:30.992Z,19.83
2017-09-16T18:48:57.696Z,18.30
2017-09-16T18:51:24.367Z,19.08
2017-09-16T18:53:51.074Z,18.02
2017-09-16T18:56:17.989Z,21.00
2017-09-16T18:58:44.692Z,18.10
2017-09-16T19:01:11.356Z,22.27
2017-09-16T19:03:38.015Z,19.40
2017-09-16T19:06:04.684Z,18.95
2017-09-16T19:08:31.347Z,19.90
2017-09-16T19:10:58.007Z,22.27
2017-09-16T19:13:24.676Z,21.35
2017-09-16T19:15:51.364Z,20.77
2017-09-16T19:18:18.024Z,19.02
2017-09-16T19:20:44.727Z,19.05
2017-09-16T19:23:11.412Z,19.83
2017-09-16T19:25:38.091Z,20.83
2017-09-16T19:28:04.747Z,20.37
2017-09-16T19:30:31.415Z,21.62
2017-09-16T19:32:58.075Z,21.33
2017-09-16T19:35:24.735Z,26.60
2017-09-16T19:37:51.416Z,28.52
2017-09-16T19:40:18.081Z,29.08
2017-09-16T19:42:44.772Z,28.55
2017-09-16T19:45:11.436Z,31.45
2017-09-16T19:47:38.157Z,539.10
2017-09-16T19:50:04.831Z,1997.65
2017-09-16T19:52:31.520Z,1849.38
2017-09-16T19:54:58.197Z,642.20
2017-09-16T19:57:24.875Z,704.60
2017-09-16T19:59:51.543Z,826.17
2017-09-16T20:02:18.212Z,965.47
2017-09-16T20:04:44.933Z,1160.95
2017-09-16T20:07:11.615Z,1269.13
2017-09-16T20:09:38.311Z,1431.57
2017-09-16T20:12:04.988Z,1616.70
2017-09-16T20:14:31.763Z,1663.20
2017-09-16T20:16:58.436Z,1826.05
2017-09-16T20:19:25.112Z,1494.80
2017-09-16T20:21:52.135Z,1535.82
2017-09-16T20:24:18.812Z,1410.00
2017-09-16T20:26:45.495Z,771.53
2017-09-16T20:29:12.173Z,559.30
2017-09-16T20:31:38.843Z,508.75
2017-09-16T20:34:05.535Z,285.67
2017-09-16T20:36:32.253Z,281.55
2017-09-16T20:38:58.926Z,541.22
2017-09-16T20:41:25.688Z,324.48
2017-09-16T20:43:52.359Z,259.00
2017-09-16T20:46:19.038Z,258.73
2017-09-16T20:48:45.708Z,327.42
2017-09-16T20:51:12.380Z,332.42
2017-09-16T20:53:39.080Z,249.37
2017-09-16T20:56:05.747Z,231.02
2017-09-16T20:58:32.432Z,240.18
2017-09-16T21:00:59.145Z,256.58
2017-09-16T21:03:25.812Z,221.20
2017-09-16T21:05:52.483Z,224.25
2017-09-16T21:08:19.161Z,246.00
2017-09-16T21:10:45.851Z,299.65
2017-09-16T21:13:12.523Z,337.42
2017-09-16T21:15:39.284Z,358.10
2017-09-16T21:18:05.955Z,405.52
2017-09-16T21:20:32.639Z,257.73
2017-09-16T21:22:59.326Z,93.97
2017-09-16T21:25:25.995Z,76.40
2017-09-16T21:27:52.684Z,66.18
2017-09-16T21:30:19.348Z,110.47
2017-09-16T21:32:46.052Z,145.48
2017-09-16T21:35:12.724Z,175.25
2017-09-16T21:37:39.414Z,165.00
2017-09-16T21:40:06.087Z,155.65
2017-09-16T21:42:32.832Z,187.73
2017-09-16T21:44:59.504Z,156.63
2017-09-16T21:47:26.171Z,165.30
2017-09-16T21:49:52.852Z,172.95
2017-09-16T21:52:19.520Z,169.57
2017-09-16T21:54:46.211Z,170.60
2017-09-16T21:57:12.879Z,132.50
2017-09-16T21:59:39.576Z,120.50
2017-09-16T22:02:06.240Z,132.27
2017-09-16T22:04:32.931Z,159.35
2017-09-16T22:06:59.603Z,138.75
2017-09-16T22:09:26.420Z,150.75
2017-09-16T22:11:53.118Z,101.90
2017-09-16T22:14:19.792Z,150.02
2017-09-16T22:16:46.471Z,117.18
2017-09-16T22:19:13.143Z,101.03
2017-09-16T22:21:39.844Z,117.57
2017-09-16T22:24:06.511Z,97.70
2017-09-16T22:26:33.203Z,98.57
2017-09-16T22:28:59.868Z,95.97
2017-09-16T22:31:26.647Z,89.40
2017-09-16T22:33:53.312Z,111.43
2017-09-16T22:36:19.978Z,98.03
2017-09-16T22:38:46.648Z,100.00
2017-09-16T22:41:13.316Z,100.03
2017-09-16T22:43:40.035Z,97.25
2017-09-16T22:46:06.700Z,94.03
2017-09-16T22:48:33.391Z,105.75
2017-09-16T22:51:00.088Z,97.47
2017-09-16T22:53:27.628Z,72.18
2017-09-16T22:55:54.287Z,66.30
2017-09-16T22:58:20.952Z,59.75
2017-09-16T23:00:47.612Z,57.55
2017-09-16T23:03:14.275Z,67.80
2017-09-16T23:05:40.976Z,65.82
2017-09-16T23:08:07.636Z,58.75
2017-09-16T23:10:34.343Z,59.42
2017-09-16T23:13:01.019Z,59.80
2017-09-16T23:15:27.684Z,57.95
2017-09-16T23:17:54.367Z,59.13
2017-09-16T23:20:21.056Z,56.20
2017-09-16T23:22:47.748Z,52.55
2017-09-16T23:25:14.419Z,41.15
2017-09-16T23:27:41.086Z,38.60
2017-09-16T23:30:07.747Z,34.95
2017-09-16T23:32:34.407Z,30.42
2017-09-16T23:35:01.128Z,30.75
2017-09-16T23:37:27.792Z,29.17
2017-09-16T23:39:54.452Z,26.77
2017-09-16T23:42:21.111Z,29.17
2017-09-16T23:44:47.775Z,31.25
2017-09-16T23:47:14.440Z,39.38
2017-09-16T23:49:41.099Z,32.15
2017-09-16T23:52:07.763Z,31.20
2017-09-16T23:54:34.463Z,28.70
2017-09-16T23:57:01.130Z,33.15
2017-09-16T23:59:27.792Z,32.20
